BTK7052 WIPP-WIHH
Flight info
| Callsign | BTK7052 |
|---|---|
| Flight time | 0h 57m |
| Altitude | 27000 |
| Route | BORAS G461 BIDAK |
| Aircraft | A320/M-SDE3FGHIRWY/LB1 |
Departure
| Time | 2026-05-05 08:22 |
|---|---|
| Airport | Sultan Mahmud Badaruddin II Airport (WIPP) |
Arrival
| Time | 2026-05-05 09:19 |
|---|---|
| Airport | Halim Perdanakusuma International Airport (WIHH) |
| Time | Latitude | Longitude | Altitude | Speed | Heading |
|---|---|---|---|---|---|
| 2026-05-05 07:29 | -2.89633 | 104.70501 | 29 ft | 0 kts | 23° |
| 2026-05-05 08:11 | -2.89655 | 104.70492 | 28 ft | 4 kts | 23° |
| 2026-05-05 08:12 | -2.89680 | 104.70481 | 28 ft | 4 kts | 23° |
| 2026-05-05 08:12 | -2.89700 | 104.70472 | 30 ft | 4 kts | 10° |
| 2026-05-05 08:12 | -2.89723 | 104.70476 | 27 ft | 4 kts | 314° |
| 2026-05-05 08:12 | -2.89736 | 104.70495 | 27 ft | 1 kts | 292° |
| 2026-05-05 08:15 | -2.89734 | 104.70491 | 26 ft | 2 kts | 292° |
| 2026-05-05 08:15 | -2.89726 | 104.70473 | 26 ft | 4 kts | 292° |
| 2026-05-05 08:16 | -2.89713 | 104.70441 | 26 ft | 6 kts | 292° |
| 2026-05-05 08:16 | -2.89694 | 104.70396 | 26 ft | 8 kts | 292° |
| 2026-05-05 08:16 | -2.89671 | 104.70342 | 26 ft | 5 kts | 292° |
| 2026-05-05 08:16 | -2.89654 | 104.70302 | 30 ft | 7 kts | 292° |
| 2026-05-05 08:17 | -2.89654 | 104.70248 | 26 ft | 9 kts | 240° |
| 2026-05-05 08:17 | -2.89707 | 104.70222 | 25 ft | 9 kts | 203° |
| 2026-05-05 08:17 | -2.89725 | 104.70163 | 24 ft | 6 kts | 291° |
| 2026-05-05 08:17 | -2.89706 | 104.70117 | 24 ft | 8 kts | 292° |
| 2026-05-05 08:18 | -2.89680 | 104.70054 | 22 ft | 12 kts | 292° |
| 2026-05-05 08:18 | -2.89649 | 104.69982 | 20 ft | 9 kts | 293° |
| 2026-05-05 08:18 | -2.89620 | 104.69913 | 19 ft | 13 kts | 293° |
| 2026-05-05 08:18 | -2.89582 | 104.69823 | 20 ft | 15 kts | 293° |
| 2026-05-05 08:19 | -2.89538 | 104.69720 | 18 ft | 17 kts | 292° |
| 2026-05-05 08:19 | -2.89488 | 104.69601 | 17 ft | 18 kts | 292° |
| 2026-05-05 08:19 | -2.89438 | 104.69481 | 20 ft | 19 kts | 292° |
| 2026-05-05 08:19 | -2.89385 | 104.69355 | 19 ft | 20 kts | 292° |
| 2026-05-05 08:20 | -2.89335 | 104.69238 | 18 ft | 13 kts | 294° |
| 2026-05-05 08:20 | -2.89296 | 104.69148 | 19 ft | 15 kts | 293° |
| 2026-05-05 08:20 | -2.89263 | 104.69054 | 20 ft | 14 kts | 274° |
| 2026-05-05 08:20 | -2.89337 | 104.68989 | 20 ft | 16 kts | 204° |
| 2026-05-05 08:21 | -2.89400 | 104.68978 | 23 ft | 8 kts | 142° |
| 2026-05-05 08:21 | -2.89434 | 104.69051 | 18 ft | 20 kts | 113° |
| 2026-05-05 08:21 | -2.89586 | 104.69408 | 13 ft | 90 kts | 113° |
| 2026-05-05 08:21 | -2.89901 | 104.70155 | 21 ft | 140 kts | 112° |
| 2026-05-05 08:22 | -2.90322 | 104.71142 | 333 ft | 155 kts | 114° |
| 2026-05-05 08:22 | -2.90719 | 104.72125 | 989 ft | 153 kts | 111° |
| 2026-05-05 08:22 | -2.91050 | 104.73116 | 1524 ft | 148 kts | 108° |
| 2026-05-05 08:22 | -2.91369 | 104.74138 | 1783 ft | 163 kts | 108° |
| 2026-05-05 08:23 | -2.91734 | 104.75294 | 1978 ft | 185 kts | 108° |
| 2026-05-05 08:23 | -2.92144 | 104.76593 | 2147 ft | 207 kts | 108° |
| 2026-05-05 08:23 | -2.92600 | 104.78043 | 2355 ft | 230 kts | 108° |
| 2026-05-05 08:23 | -2.93112 | 104.79663 | 2703 ft | 256 kts | 107° |
| 2026-05-05 08:24 | -2.93654 | 104.81400 | 3361 ft | 266 kts | 107° |
| 2026-05-05 08:24 | -2.94212 | 104.83180 | 4207 ft | 271 kts | 108° |
| 2026-05-05 08:24 | -2.94805 | 104.84979 | 5077 ft | 274 kts | 112° |
| 2026-05-05 08:24 | -2.95749 | 104.86644 | 5891 ft | 278 kts | 128° |
| 2026-05-05 08:25 | -2.97101 | 104.88031 | 6691 ft | 281 kts | 139° |
| 2026-05-05 08:25 | -2.98574 | 104.89335 | 7488 ft | 285 kts | 139° |
| 2026-05-05 08:25 | -3.00062 | 104.90659 | 8270 ft | 288 kts | 138° |
| 2026-05-05 08:25 | -3.01563 | 104.92003 | 9035 ft | 292 kts | 138° |
| 2026-05-05 08:26 | -3.03082 | 104.93368 | 9763 ft | 295 kts | 138° |
| 2026-05-05 08:26 | -3.04618 | 104.94749 | 10477 ft | 299 kts | 138° |
| 2026-05-05 08:26 | -3.06215 | 104.96191 | 10722 ft | 321 kts | 138° |
| 2026-05-05 08:26 | -3.07931 | 104.97738 | 10862 ft | 342 kts | 138° |
| 2026-05-05 08:27 | -3.09734 | 104.99360 | 11245 ft | 353 kts | 138° |
| 2026-05-05 08:27 | -3.11569 | 105.01011 | 11823 ft | 357 kts | 138° |
| 2026-05-05 08:27 | -3.13426 | 105.02681 | 12422 ft | 361 kts | 138° |
| 2026-05-05 08:27 | -3.15303 | 105.04369 | 13010 ft | 364 kts | 138° |
| 2026-05-05 08:28 | -3.17193 | 105.06068 | 13592 ft | 367 kts | 137° |
| 2026-05-05 08:28 | -3.19071 | 105.07759 | 14154 ft | 370 kts | 137° |
| 2026-05-05 08:28 | -3.20990 | 105.09489 | 14712 ft | 373 kts | 137° |
| 2026-05-05 08:28 | -3.22926 | 105.11231 | 15267 ft | 375 kts | 137° |
| 2026-05-05 08:29 | -3.24876 | 105.12984 | 15795 ft | 378 kts | 137° |
| 2026-05-05 08:29 | -3.26841 | 105.14750 | 16318 ft | 381 kts | 137° |
| 2026-05-05 08:29 | -3.28821 | 105.16528 | 16826 ft | 384 kts | 137° |
| 2026-05-05 08:30 | -3.32819 | 105.20123 | 17798 ft | 389 kts | 137° |
| 2026-05-05 08:30 | -3.34845 | 105.21944 | 18273 ft | 392 kts | 137° |
| 2026-05-05 08:30 | -3.36876 | 105.23773 | 18738 ft | 395 kts | 137° |
| 2026-05-05 08:30 | -3.38805 | 105.25736 | 19187 ft | 397 kts | 129° |
| 2026-05-05 08:31 | -3.40583 | 105.27857 | 19633 ft | 399 kts | 129° |
| 2026-05-05 08:31 | -3.42376 | 105.29990 | 20067 ft | 402 kts | 129° |
| 2026-05-05 08:31 | -3.44185 | 105.32133 | 20512 ft | 404 kts | 129° |
| 2026-05-05 08:31 | -3.46006 | 105.34287 | 20940 ft | 407 kts | 129° |
| 2026-05-05 08:32 | -3.47838 | 105.36453 | 21352 ft | 409 kts | 129° |
| 2026-05-05 08:32 | -3.49683 | 105.38631 | 21735 ft | 411 kts | 129° |
| 2026-05-05 08:32 | -3.51535 | 105.40823 | 22114 ft | 413 kts | 129° |
| 2026-05-05 08:32 | -3.53395 | 105.43030 | 22474 ft | 416 kts | 129° |
| 2026-05-05 08:33 | -3.55264 | 105.45249 | 22835 ft | 418 kts | 129° |
| 2026-05-05 08:33 | -3.57146 | 105.47477 | 23169 ft | 420 kts | 129° |
| 2026-05-05 08:33 | -3.59039 | 105.49717 | 23494 ft | 423 kts | 129° |
| 2026-05-05 08:33 | -3.60943 | 105.51972 | 23821 ft | 425 kts | 129° |
| 2026-05-05 08:34 | -3.62855 | 105.54235 | 24143 ft | 427 kts | 129° |
| 2026-05-05 08:34 | -3.64775 | 105.56511 | 24455 ft | 429 kts | 129° |
| 2026-05-05 08:34 | -3.66705 | 105.58797 | 24767 ft | 431 kts | 129° |
| 2026-05-05 08:34 | -3.68646 | 105.61094 | 25064 ft | 433 kts | 129° |
| 2026-05-05 08:35 | -3.70596 | 105.63401 | 25360 ft | 435 kts | 129° |
| 2026-05-05 08:35 | -3.72555 | 105.65718 | 25659 ft | 437 kts | 129° |
| 2026-05-05 08:35 | -3.74520 | 105.68047 | 25952 ft | 439 kts | 128° |
| 2026-05-05 08:35 | -3.76491 | 105.70387 | 26246 ft | 441 kts | 128° |
| 2026-05-05 08:36 | -3.78470 | 105.72738 | 26534 ft | 442 kts | 128° |
| 2026-05-05 08:36 | -3.80456 | 105.75098 | 26761 ft | 444 kts | 128° |
| 2026-05-05 08:36 | -3.82416 | 105.77429 | 26820 ft | 444 kts | 128° |
| 2026-05-05 08:36 | -3.84404 | 105.79791 | 26822 ft | 443 kts | 128° |
| 2026-05-05 08:37 | -3.86392 | 105.82147 | 26822 ft | 443 kts | 128° |
| 2026-05-05 08:37 | -3.88381 | 105.84501 | 26822 ft | 443 kts | 129° |
| 2026-05-05 08:37 | -3.90372 | 105.86854 | 26822 ft | 443 kts | 129° |
| 2026-05-05 08:37 | -3.92361 | 105.89209 | 26822 ft | 443 kts | 128° |
| 2026-05-05 08:38 | -3.94347 | 105.91568 | 26822 ft | 443 kts | 128° |
| 2026-05-05 08:38 | -3.96325 | 105.93922 | 26822 ft | 443 kts | 128° |
| 2026-05-05 08:38 | -3.98311 | 105.96287 | 26822 ft | 443 kts | 128° |
| 2026-05-05 08:38 | -4.00290 | 105.98641 | 26822 ft | 443 kts | 128° |
| 2026-05-05 08:39 | -4.02274 | 106.01001 | 26824 ft | 443 kts | 128° |
| 2026-05-05 08:39 | -4.04188 | 106.03412 | 26824 ft | 442 kts | 123° |
| 2026-05-05 08:39 | -4.05781 | 106.06036 | 26824 ft | 441 kts | 118° |
| 2026-05-05 08:39 | -4.07319 | 106.08692 | 26824 ft | 441 kts | 118° |
| 2026-05-05 08:40 | -4.08856 | 106.11349 | 26825 ft | 441 kts | 118° |
| 2026-05-05 08:40 | -4.10392 | 106.14007 | 26826 ft | 441 kts | 118° |
| 2026-05-05 08:40 | -4.11925 | 106.16665 | 26827 ft | 441 kts | 118° |
| 2026-05-05 08:40 | -4.13460 | 106.19325 | 26827 ft | 441 kts | 118° |
| 2026-05-05 08:41 | -4.14995 | 106.21984 | 26828 ft | 441 kts | 118° |
| 2026-05-05 08:41 | -4.16533 | 106.24642 | 26829 ft | 441 kts | 118° |
| 2026-05-05 08:41 | -4.18071 | 106.27300 | 26830 ft | 441 kts | 118° |
| 2026-05-05 08:41 | -4.19606 | 106.29959 | 26830 ft | 440 kts | 118° |
| 2026-05-05 08:42 | -4.21140 | 106.32613 | 26830 ft | 440 kts | 118° |
| 2026-05-05 08:42 | -4.22655 | 106.35231 | 26829 ft | 440 kts | 118° |
| 2026-05-05 08:42 | -4.24186 | 106.37888 | 26827 ft | 440 kts | 118° |
| 2026-05-05 08:42 | -4.25716 | 106.40547 | 26831 ft | 441 kts | 118° |
| 2026-05-05 08:43 | -4.27250 | 106.43204 | 26834 ft | 441 kts | 118° |
| 2026-05-05 08:43 | -4.28787 | 106.45861 | 26836 ft | 441 kts | 118° |
| 2026-05-05 08:43 | -4.30323 | 106.48520 | 26834 ft | 441 kts | 119° |
| 2026-05-05 08:43 | -4.31861 | 106.51179 | 26836 ft | 441 kts | 119° |
| 2026-05-05 08:44 | -4.33398 | 106.53839 | 26838 ft | 441 kts | 118° |
| 2026-05-05 08:44 | -4.34933 | 106.56500 | 26840 ft | 441 kts | 118° |
| 2026-05-05 08:44 | -4.36467 | 106.59163 | 26841 ft | 441 kts | 118° |
| 2026-05-05 08:44 | -4.38002 | 106.61828 | 26843 ft | 441 kts | 118° |
| 2026-05-05 08:45 | -4.39536 | 106.64492 | 26845 ft | 441 kts | 118° |
| 2026-05-05 08:45 | -4.41071 | 106.67156 | 26846 ft | 441 kts | 118° |
| 2026-05-05 08:45 | -4.42606 | 106.69820 | 26848 ft | 441 kts | 118° |
| 2026-05-05 08:45 | -4.44144 | 106.72484 | 26849 ft | 442 kts | 118° |
| 2026-05-05 08:46 | -4.45856 | 106.75037 | 26844 ft | 443 kts | 130° |
| 2026-05-05 08:46 | -4.48171 | 106.77075 | 26843 ft | 446 kts | 146° |
| 2026-05-05 08:46 | -4.50847 | 106.78653 | 26840 ft | 447 kts | 148° |
| 2026-05-05 08:46 | -4.53543 | 106.80191 | 26837 ft | 447 kts | 149° |
| 2026-05-05 08:47 | -4.56253 | 106.81727 | 26835 ft | 447 kts | 149° |
| 2026-05-05 08:47 | -4.58950 | 106.83277 | 26835 ft | 447 kts | 148° |
| 2026-05-05 08:47 | -4.61634 | 106.84851 | 26834 ft | 447 kts | 148° |
| 2026-05-05 08:47 | -4.64304 | 106.86439 | 26834 ft | 447 kts | 147° |
| 2026-05-05 08:48 | -4.66973 | 106.88038 | 26835 ft | 447 kts | 147° |
| 2026-05-05 08:48 | -4.69645 | 106.89636 | 26836 ft | 447 kts | 147° |
| 2026-05-05 08:48 | -4.72319 | 106.91232 | 26836 ft | 447 kts | 148° |
| 2026-05-05 08:48 | -4.74995 | 106.92826 | 26837 ft | 447 kts | 148° |
| 2026-05-05 08:49 | -4.77673 | 106.94417 | 26838 ft | 447 kts | 148° |
| 2026-05-05 08:49 | -4.80353 | 106.96005 | 26839 ft | 447 kts | 148° |
| 2026-05-05 08:49 | -4.83032 | 106.97592 | 26840 ft | 447 kts | 148° |
| 2026-05-05 08:49 | -4.85711 | 106.99181 | 26839 ft | 447 kts | 148° |
| 2026-05-05 08:50 | -4.88390 | 107.00772 | 26839 ft | 447 kts | 148° |
| 2026-05-05 08:50 | -4.91070 | 107.02362 | 26840 ft | 447 kts | 148° |
| 2026-05-05 08:50 | -4.93748 | 107.03955 | 26841 ft | 447 kts | 148° |
| 2026-05-05 08:50 | -4.96422 | 107.05547 | 26842 ft | 447 kts | 148° |
| 2026-05-05 08:51 | -4.99099 | 107.07140 | 26842 ft | 447 kts | 148° |
| 2026-05-05 08:51 | -5.01777 | 107.08732 | 26843 ft | 448 kts | 148° |
| 2026-05-05 08:51 | -5.04454 | 107.10326 | 26844 ft | 448 kts | 148° |
| 2026-05-05 08:51 | -5.07131 | 107.11923 | 26763 ft | 446 kts | 148° |
| 2026-05-05 08:52 | -5.09781 | 107.13502 | 26305 ft | 440 kts | 148° |
| 2026-05-05 08:52 | -5.12400 | 107.15061 | 25783 ft | 435 kts | 148° |
| 2026-05-05 08:52 | -5.14992 | 107.16602 | 25256 ft | 431 kts | 148° |
| 2026-05-05 08:52 | -5.17560 | 107.18128 | 24758 ft | 427 kts | 148° |
| 2026-05-05 08:53 | -5.19244 | 107.19129 | 24427 ft | 425 kts | 148° |
| 2026-05-05 08:53 | -5.21779 | 107.20636 | 23919 ft | 422 kts | 148° |
| 2026-05-05 08:53 | -5.24292 | 107.22131 | 23421 ft | 419 kts | 148° |
| 2026-05-05 08:53 | -5.26786 | 107.23617 | 22922 ft | 415 kts | 148° |
| 2026-05-05 08:54 | -5.29260 | 107.25090 | 22421 ft | 412 kts | 148° |
| 2026-05-05 08:54 | -5.31715 | 107.26551 | 21935 ft | 409 kts | 148° |
| 2026-05-05 08:54 | -5.34154 | 107.28000 | 21484 ft | 406 kts | 148° |
| 2026-05-05 08:54 | -5.36572 | 107.29439 | 21048 ft | 402 kts | 148° |
| 2026-05-05 08:55 | -5.38964 | 107.30863 | 20570 ft | 399 kts | 148° |
| 2026-05-05 08:55 | -5.41343 | 107.32281 | 20085 ft | 396 kts | 148° |
| 2026-05-05 08:55 | -5.43704 | 107.33691 | 19611 ft | 393 kts | 148° |
| 2026-05-05 08:55 | -5.46043 | 107.35088 | 19153 ft | 390 kts | 148° |
| 2026-05-05 08:56 | -5.48372 | 107.36477 | 18777 ft | 389 kts | 148° |
| 2026-05-05 08:56 | -5.50690 | 107.37859 | 18402 ft | 386 kts | 148° |
| 2026-05-05 08:56 | -5.52995 | 107.39232 | 18027 ft | 384 kts | 148° |
| 2026-05-05 08:56 | -5.55289 | 107.40599 | 17647 ft | 382 kts | 148° |
| 2026-05-05 08:57 | -5.57566 | 107.41956 | 17276 ft | 380 kts | 148° |
| 2026-05-05 08:57 | -5.59831 | 107.43304 | 16902 ft | 378 kts | 148° |
| 2026-05-05 08:57 | -5.62085 | 107.44644 | 16525 ft | 375 kts | 148° |
| 2026-05-05 08:57 | -5.64325 | 107.45978 | 16147 ft | 373 kts | 148° |
| 2026-05-05 08:58 | -5.66549 | 107.47306 | 15777 ft | 371 kts | 148° |
| 2026-05-05 08:58 | -5.68760 | 107.48628 | 15398 ft | 369 kts | 148° |
| 2026-05-05 08:58 | -5.70961 | 107.49941 | 15021 ft | 367 kts | 148° |
| 2026-05-05 08:58 | -5.73147 | 107.51244 | 14648 ft | 365 kts | 148° |
| 2026-05-05 08:59 | -5.75324 | 107.52543 | 14276 ft | 363 kts | 148° |
| 2026-05-05 08:59 | -5.77488 | 107.53834 | 13897 ft | 361 kts | 149° |
| 2026-05-05 08:59 | -5.79641 | 107.55118 | 13525 ft | 359 kts | 149° |
| 2026-05-05 08:59 | -5.81782 | 107.56398 | 13146 ft | 357 kts | 148° |
| 2026-05-05 09:00 | -5.83910 | 107.57668 | 12756 ft | 355 kts | 149° |
| 2026-05-05 09:00 | -5.86025 | 107.58932 | 12394 ft | 353 kts | 149° |
| 2026-05-05 09:00 | -5.88129 | 107.60188 | 12017 ft | 351 kts | 149° |
| 2026-05-05 09:00 | -5.90222 | 107.61436 | 11643 ft | 349 kts | 149° |
| 2026-05-05 09:01 | -5.92370 | 107.62539 | 11266 ft | 347 kts | 161° |
| 2026-05-05 09:01 | -5.94748 | 107.62844 | 10890 ft | 346 kts | 184° |
| 2026-05-05 09:01 | -5.97023 | 107.62213 | 10518 ft | 346 kts | 207° |
| 2026-05-05 09:01 | -5.98909 | 107.60730 | 10096 ft | 346 kts | 230° |
| 2026-05-05 09:02 | -6.00259 | 107.58785 | 9666 ft | 332 kts | 236° |
| 2026-05-05 09:02 | -6.01500 | 107.56882 | 9230 ft | 319 kts | 236° |
| 2026-05-05 09:02 | -6.02691 | 107.55049 | 8813 ft | 308 kts | 236° |
| 2026-05-05 09:02 | -6.03854 | 107.53264 | 8395 ft | 305 kts | 236° |
| 2026-05-05 09:03 | -6.05020 | 107.51474 | 7969 ft | 307 kts | 236° |
| 2026-05-05 09:03 | -6.06194 | 107.49675 | 7543 ft | 308 kts | 236° |
| 2026-05-05 09:03 | -6.07372 | 107.47871 | 7115 ft | 309 kts | 236° |
| 2026-05-05 09:03 | -6.08553 | 107.46061 | 6693 ft | 310 kts | 236° |
| 2026-05-05 09:04 | -6.09737 | 107.44247 | 6268 ft | 311 kts | 236° |
| 2026-05-05 09:04 | -6.10922 | 107.42431 | 5842 ft | 311 kts | 236° |
| 2026-05-05 09:04 | -6.12099 | 107.40630 | 5443 ft | 302 kts | 236° |
| 2026-05-05 09:04 | -6.13221 | 107.38914 | 5235 ft | 289 kts | 236° |
| 2026-05-05 09:05 | -6.14317 | 107.37234 | 5034 ft | 286 kts | 236° |
| 2026-05-05 09:05 | -6.15400 | 107.35571 | 4837 ft | 284 kts | 236° |
| 2026-05-05 09:05 | -6.16480 | 107.33915 | 4632 ft | 283 kts | 236° |
| 2026-05-05 09:05 | -6.17557 | 107.32265 | 4436 ft | 282 kts | 236° |
| 2026-05-05 09:06 | -6.18630 | 107.30617 | 4236 ft | 281 kts | 236° |
| 2026-05-05 09:06 | -6.19700 | 107.28972 | 4036 ft | 281 kts | 236° |
| 2026-05-05 09:06 | -6.20757 | 107.27325 | 3874 ft | 279 kts | 236° |
| 2026-05-05 09:06 | -6.21789 | 107.25694 | 3874 ft | 281 kts | 237° |
| 2026-05-05 09:07 | -6.22835 | 107.24034 | 3874 ft | 281 kts | 237° |
| 2026-05-05 09:07 | -6.23894 | 107.22350 | 3874 ft | 281 kts | 237° |
| 2026-05-05 09:07 | -6.24923 | 107.20712 | 3874 ft | 281 kts | 237° |
| 2026-05-05 09:07 | -6.25969 | 107.19052 | 3875 ft | 281 kts | 237° |
| 2026-05-05 09:08 | -6.27031 | 107.17371 | 3874 ft | 281 kts | 236° |
| 2026-05-05 09:08 | -6.28064 | 107.15736 | 3875 ft | 281 kts | 236° |
| 2026-05-05 09:08 | -6.29124 | 107.14056 | 3873 ft | 281 kts | 237° |
| 2026-05-05 09:08 | -6.30169 | 107.12393 | 3874 ft | 281 kts | 237° |
| 2026-05-05 09:09 | -6.31184 | 107.10748 | 3875 ft | 281 kts | 237° |
| 2026-05-05 09:09 | -6.32209 | 107.09074 | 3875 ft | 281 kts | 237° |
| 2026-05-05 09:09 | -6.33230 | 107.07402 | 3873 ft | 281 kts | 237° |
| 2026-05-05 09:09 | -6.34255 | 107.05724 | 3874 ft | 281 kts | 237° |
| 2026-05-05 09:10 | -6.35279 | 107.04051 | 3874 ft | 281 kts | 237° |
| 2026-05-05 09:10 | -6.36303 | 107.02376 | 3874 ft | 281 kts | 237° |
| 2026-05-05 09:10 | -6.37326 | 107.00702 | 3874 ft | 281 kts | 237° |
| 2026-05-05 09:10 | -6.38344 | 106.99042 | 3870 ft | 273 kts | 237° |
| 2026-05-05 09:11 | -6.39317 | 106.97458 | 3867 ft | 261 kts | 237° |
| 2026-05-05 09:11 | -6.40212 | 106.95876 | 3869 ft | 261 kts | 246° |
| 2026-05-05 09:11 | -6.40705 | 106.94129 | 3867 ft | 260 kts | 259° |
| 2026-05-05 09:11 | -6.41029 | 106.92337 | 3868 ft | 261 kts | 259° |
| 2026-05-05 09:12 | -6.41361 | 106.90546 | 3869 ft | 261 kts | 259° |
| 2026-05-05 09:12 | -6.41699 | 106.88757 | 3870 ft | 261 kts | 259° |
| 2026-05-05 09:12 | -6.42037 | 106.86967 | 3868 ft | 261 kts | 259° |
| 2026-05-05 09:12 | -6.42374 | 106.85177 | 3866 ft | 260 kts | 259° |
| 2026-05-05 09:13 | -6.42707 | 106.83406 | 3864 ft | 253 kts | 259° |
| 2026-05-05 09:13 | -6.43021 | 106.81718 | 3862 ft | 239 kts | 259° |
| 2026-05-05 09:13 | -6.43105 | 106.80073 | 3851 ft | 235 kts | 283° |
| 2026-05-05 09:13 | -6.42425 | 106.78609 | 3849 ft | 232 kts | 314° |
| 2026-05-05 09:14 | -6.41171 | 106.77687 | 3855 ft | 216 kts | 339° |
| 2026-05-05 09:14 | -6.39806 | 106.77078 | 3616 ft | 215 kts | 340° |
| 2026-05-05 09:14 | -6.38437 | 106.76466 | 3331 ft | 215 kts | 339° |
| 2026-05-05 09:14 | -6.37066 | 106.75851 | 3049 ft | 216 kts | 339° |
| 2026-05-05 09:15 | -6.35707 | 106.75240 | 2877 ft | 210 kts | 339° |
| 2026-05-05 09:15 | -6.34383 | 106.74652 | 2783 ft | 205 kts | 343° |
| 2026-05-05 09:15 | -6.33037 | 106.74562 | 2708 ft | 187 kts | 23° |
| 2026-05-05 09:15 | -6.32069 | 106.75293 | 2556 ft | 172 kts | 60° |
| 2026-05-05 09:16 | -6.31674 | 106.76393 | 2364 ft | 165 kts | 74° |
| 2026-05-05 09:16 | -6.31362 | 106.77478 | 2184 ft | 159 kts | 73° |
| 2026-05-05 09:16 | -6.31057 | 106.78512 | 2038 ft | 149 kts | 72° |
| 2026-05-05 09:16 | -6.30769 | 106.79482 | 1904 ft | 141 kts | 72° |
| 2026-05-05 09:17 | -6.30494 | 106.80415 | 1758 ft | 138 kts | 72° |
| 2026-05-05 09:17 | -6.30217 | 106.81335 | 1617 ft | 137 kts | 69° |
| 2026-05-05 09:17 | -6.29826 | 106.82207 | 1436 ft | 136 kts | 64° |
| 2026-05-05 09:17 | -6.29430 | 106.83070 | 1261 ft | 136 kts | 64° |
| 2026-05-05 09:18 | -6.29032 | 106.83932 | 1077 ft | 136 kts | 64° |
| 2026-05-05 09:18 | -6.28639 | 106.84797 | 889 ft | 136 kts | 64° |
| 2026-05-05 09:18 | -6.28244 | 106.85656 | 700 ft | 136 kts | 63° |
| 2026-05-05 09:18 | -6.27852 | 106.86525 | 476 ft | 137 kts | 65° |
| 2026-05-05 09:19 | -6.27455 | 106.87392 | 276 ft | 137 kts | 64° |
| 2026-05-05 09:19 | -6.27058 | 106.88256 | 109 ft | 130 kts | 64° |
| 2026-05-05 09:19 | -6.26721 | 106.88981 | 97 ft | 93 kts | 65° |
| 2026-05-05 09:19 | -6.26523 | 106.89409 | 95 ft | 45 kts | 65° |
| 2026-05-05 09:20 | -6.26394 | 106.89686 | 95 ft | 42 kts | 65° |
| 2026-05-05 09:20 | -6.26287 | 106.89922 | 97 ft | 33 kts | 65° |
| 2026-05-05 09:20 | -6.26205 | 106.90102 | 97 ft | 25 kts | 65° |
| 2026-05-05 09:20 | -6.26116 | 106.90214 | 97 ft | 20 kts | 39° |
| 2026-05-05 09:21 | -6.26124 | 106.90270 | 97 ft | 11 kts | 212° |
| 2026-05-05 09:21 | -6.26163 | 106.90191 | 97 ft | 16 kts | 245° |
| 2026-05-05 09:21 | -6.26233 | 106.90038 | 97 ft | 32 kts | 245° |
| 2026-05-05 09:21 | -6.26336 | 106.89812 | 96 ft | 37 kts | 245° |
| 2026-05-05 09:22 | -6.26447 | 106.89570 | 94 ft | 38 kts | 245° |
| 2026-05-05 09:22 | -6.26531 | 106.89389 | 97 ft | 20 kts | 245° |
| 2026-05-05 09:22 | -6.26579 | 106.89275 | 96 ft | 16 kts | 259° |
| 2026-05-05 09:22 | -6.26555 | 106.89179 | 96 ft | 13 kts | 290° |
| 2026-05-05 09:23 | -6.26519 | 106.89081 | 95 ft | 16 kts | 291° |
| 2026-05-05 09:23 | -6.26501 | 106.88982 | 94 ft | 16 kts | 254° |
| 2026-05-05 09:23 | -6.26537 | 106.88901 | 94 ft | 13 kts | 245° |
| 2026-05-05 09:23 | -6.26577 | 106.88815 | 95 ft | 15 kts | 245° |
| 2026-05-05 09:24 | -6.26617 | 106.88729 | 95 ft | 13 kts | 245° |
| 2026-05-05 09:24 | -6.26646 | 106.88666 | 95 ft | 7 kts | 245° |
| 2026-05-05 09:24 | -6.26667 | 106.88621 | 96 ft | 5 kts | 245° |
| 2026-05-05 09:24 | -6.26668 | 106.88590 | 96 ft | 5 kts | 312° |
| 2026-05-05 09:25 | -6.26657 | 106.88584 | 95 ft | 1 kts | 335° |
| 2026-05-05 09:25 | -6.26642 | 106.88577 | 95 ft | 3 kts | 335° |
| 2026-05-05 09:25 | -6.26630 | 106.88571 | 95 ft | 1 kts | 335° |
| 2026-05-05 09:25 | -6.26628 | 106.88570 | 95 ft | 0 kts | 335° |